sensor_id;sensor_type;location;lat;lon;timestamp;P1;durP1;ratioP1;P2;durP2;ratioP2
9374;SDS011;4727;51.202;6.344;2023-02-01T00:01:29;25.40;;;14.30;;
9374;SDS011;4727;51.202;6.344;2023-02-01T00:03:55;23.57;;;14.60;;
9374;SDS011;4727;51.202;6.344;2023-02-01T00:06:21;19.83;;;13.00;;
9374;SDS011;4727;51.202;6.344;2023-02-01T00:08:47;21.47;;;12.23;;
9374;SDS011;4727;51.202;6.344;2023-02-01T00:11:13;24.30;;;13.60;;
9374;SDS011;4727;51.202;6.344;2023-02-01T00:13:40;20.33;;;12.50;;
9374;SDS011;4727;51.202;6.344;2023-02-01T00:16:07;24.83;;;12.87;;
9374;SDS011;4727;51.202;6.344;2023-02-01T00:18:34;18.53;;;10.97;;
9374;SDS011;4727;51.202;6.344;2023-02-01T00:21:00;20.63;;;10.40;;
9374;SDS011;4727;51.202;6.344;2023-02-01T00:23:26;21.37;;;10.50;;
9374;SDS011;4727;51.202;6.344;2023-02-01T00:25:52;21.90;;;9.83;;
9374;SDS011;4727;51.202;6.344;2023-02-01T00:28:18;19.40;;;9.90;;
9374;SDS011;4727;51.202;6.344;2023-02-01T00:30:44;16.57;;;8.87;;
9374;SDS011;4727;51.202;6.344;2023-02-01T00:33:10;18.47;;;8.00;;
9374;SDS011;4727;51.202;6.344;2023-02-01T00:35:36;14.17;;;7.60;;
9374;SDS011;4727;51.202;6.344;2023-02-01T00:38:02;17.83;;;7.60;;
9374;SDS011;4727;51.202;6.344;2023-02-01T00:40:28;12.77;;;6.07;;
9374;SDS011;4727;51.202;6.344;2023-02-01T00:42:54;18.20;;;5.97;;
9374;SDS011;4727;51.202;6.344;2023-02-01T00:45:22;20.97;;;6.47;;
9374;SDS011;4727;51.202;6.344;2023-02-01T00:47:48;17.33;;;6.23;;
9374;SDS011;4727;51.202;6.344;2023-02-01T00:50:14;14.13;;;6.43;;
9374;SDS011;4727;51.202;6.344;2023-02-01T00:52:40;13.03;;;5.37;;
9374;SDS011;4727;51.202;6.344;2023-02-01T00:55:06;17.53;;;6.77;;
9374;SDS011;4727;51.202;6.344;2023-02-01T00:57:32;15.33;;;6.40;;
9374;SDS011;4727;51.202;6.344;2023-02-01T00:59:58;14.57;;;6.13;;
9374;SDS011;4727;51.202;6.344;2023-02-01T01:02:25;17.07;;;5.90;;
9374;SDS011;4727;51.202;6.344;2023-02-01T01:04:52;14.33;;;6.10;;
9374;SDS011;4727;51.202;6.344;2023-02-01T01:07:18;14.27;;;6.13;;
9374;SDS011;4727;51.202;6.344;2023-02-01T01:09:44;17.63;;;6.93;;
9374;SDS011;4727;51.202;6.344;2023-02-01T01:12:10;16.20;;;6.10;;
9374;SDS011;4727;51.202;6.344;2023-02-01T01:14:36;13.27;;;6.23;;
9374;SDS011;4727;51.202;6.344;2023-02-01T01:17:02;14.43;;;6.23;;
9374;SDS011;4727;51.202;6.344;2023-02-01T01:19:28;14.57;;;5.57;;
9374;SDS011;4727;51.202;6.344;2023-02-01T01:21:54;11.87;;;5.67;;
9374;SDS011;4727;51.202;6.344;2023-02-01T01:24:20;12.93;;;5.60;;
9374;SDS011;4727;51.202;6.344;2023-02-01T01:26:45;11.77;;;5.63;;
9374;SDS011;4727;51.202;6.344;2023-02-01T01:29:11;14.00;;;5.33;;
9374;SDS011;4727;51.202;6.344;2023-02-01T01:31:37;18.00;;;6.40;;
9374;SDS011;4727;51.202;6.344;2023-02-01T01:34:03;14.07;;;5.17;;
9374;SDS011;4727;51.202;6.344;2023-02-01T01:36:29;17.03;;;5.90;;
9374;SDS011;4727;51.202;6.344;2023-02-01T01:38:55;14.30;;;5.50;;
9374;SDS011;4727;51.202;6.344;2023-02-01T01:41:23;17.27;;;6.37;;
9374;SDS011;4727;51.202;6.344;2023-02-01T01:43:56;14.50;;;5.43;;
9374;SDS011;4727;51.202;6.344;2023-02-01T01:46:26;12.00;;;5.00;;
9374;SDS011;4727;51.202;6.344;2023-02-01T01:48:55;15.80;;;6.50;;
9374;SDS011;4727;51.202;6.344;2023-02-01T01:51:23;20.37;;;6.53;;
9374;SDS011;4727;51.202;6.344;2023-02-01T01:54:03;22.40;;;6.00;;
9374;SDS011;4727;51.202;6.344;2023-02-01T01:56:31;17.50;;;5.03;;
9374;SDS011;4727;51.202;6.344;2023-02-01T01:58:58;12.67;;;5.30;;
9374;SDS011;4727;51.202;6.344;2023-02-01T02:01:24;13.00;;;5.30;;
9374;SDS011;4727;51.202;6.344;2023-02-01T02:03:50;17.30;;;6.03;;
9374;SDS011;4727;51.202;6.344;2023-02-01T02:06:24;18.03;;;6.00;;
9374;SDS011;4727;51.202;6.344;2023-02-01T02:08:52;16.20;;;5.93;;
9374;SDS011;4727;51.202;6.344;2023-02-01T02:11:18;13.23;;;6.23;;
9374;SDS011;4727;51.202;6.344;2023-02-01T02:13:45;17.70;;;5.70;;
9374;SDS011;4727;51.202;6.344;2023-02-01T02:18:55;18.83;;;6.50;;
9374;SDS011;4727;51.202;6.344;2023-02-01T02:26:48;15.60;;;5.53;;
9374;SDS011;4727;51.202;6.344;2023-02-01T02:29:26;14.53;;;5.67;;
9374;SDS011;4727;51.202;6.344;2023-02-01T02:37:42;17.53;;;6.40;;
9374;SDS011;4727;51.202;6.344;2023-02-01T02:45:41;12.40;;;5.13;;
9374;SDS011;4727;51.202;6.344;2023-02-01T02:48:44;19.50;;;6.20;;
9374;SDS011;4727;51.202;6.344;2023-02-01T02:51:15;15.70;;;6.53;;
9374;SDS011;4727;51.202;6.344;2023-02-01T02:54:05;18.20;;;6.50;;
9374;SDS011;4727;51.202;6.344;2023-02-01T02:57:08;17.73;;;6.40;;
9374;SDS011;4727;51.202;6.344;2023-02-01T02:59:55;18.67;;;5.90;;
9374;SDS011;4727;51.202;6.344;2023-02-01T03:02:40;15.27;;;6.27;;
9374;SDS011;4727;51.202;6.344;2023-02-01T03:05:25;17.17;;;5.77;;
9374;SDS011;4727;51.202;6.344;2023-02-01T03:08:04;17.37;;;6.13;;
9374;SDS011;4727;51.202;6.344;2023-02-01T03:15:53;20.43;;;6.40;;
9374;SDS011;4727;51.202;6.344;2023-02-01T03:20:58;18.03;;;5.87;;
9374;SDS011;4727;51.202;6.344;2023-02-01T03:23:27;15.23;;;5.73;;
9374;SDS011;4727;51.202;6.344;2023-02-01T03:25:55;19.80;;;6.03;;
9374;SDS011;4727;51.202;6.344;2023-02-01T03:28:22;16.83;;;5.90;;
9374;SDS011;4727;51.202;6.344;2023-02-01T03:30:49;15.30;;;6.40;;
9374;SDS011;4727;51.202;6.344;2023-02-01T03:33:16;23.87;;;6.40;;
9374;SDS011;4727;51.202;6.344;2023-02-01T07:31:11;22.70;;;6.93;;
9374;SDS011;4727;51.202;6.344;2023-02-01T07:34:02;16.50;;;5.67;;
9374;SDS011;4727;51.202;6.344;2023-02-01T07:36:28;18.20;;;5.90;;
9374;SDS011;4727;51.202;6.344;2023-02-01T07:39:01;18.80;;;4.70;;
9374;SDS011;4727;51.202;6.344;2023-02-01T07:41:27;16.83;;;5.07;;
9374;SDS011;4727;51.202;6.344;2023-02-01T07:43:53;15.67;;;5.87;;
9374;SDS011;4727;51.202;6.344;2023-02-01T07:46:20;17.97;;;5.73;;
9374;SDS011;4727;51.202;6.344;2023-02-01T07:48:46;19.90;;;5.97;;
9374;SDS011;4727;51.202;6.344;2023-02-01T07:51:13;15.37;;;5.13;;
9374;SDS011;4727;51.202;6.344;2023-02-01T07:53:39;20.93;;;6.00;;
9374;SDS011;4727;51.202;6.344;2023-02-01T07:56:16;22.87;;;6.20;;
9374;SDS011;4727;51.202;6.344;2023-02-01T07:58:42;17.13;;;6.20;;
9374;SDS011;4727;51.202;6.344;2023-02-01T08:01:15;13.87;;;5.53;;
9374;SDS011;4727;51.202;6.344;2023-02-01T08:03:45;21.53;;;5.27;;
9374;SDS011;4727;51.202;6.344;2023-02-01T08:06:11;17.90;;;4.70;;
9374;SDS011;4727;51.202;6.344;2023-02-01T08:08:40;23.30;;;6.33;;
9374;SDS011;4727;51.202;6.344;2023-02-01T08:11:21;20.60;;;6.27;;
9374;SDS011;4727;51.202;6.344;2023-02-01T08:16:41;11.47;;;4.77;;
9374;SDS011;4727;51.202;6.344;2023-02-01T08:19:16;16.80;;;5.30;;
9374;SDS011;4727;51.202;6.344;2023-02-01T08:21:48;20.23;;;5.80;;
9374;SDS011;4727;51.202;6.344;2023-02-01T08:24:40;14.90;;;5.63;;
9374;SDS011;4727;51.202;6.344;2023-02-01T08:27:08;17.03;;;5.83;;
9374;SDS011;4727;51.202;6.344;2023-02-01T08:29:48;19.63;;;5.97;;
9374;SDS011;4727;51.202;6.344;2023-02-01T08:32:27;15.27;;;5.33;;
9374;SDS011;4727;51.202;6.344;2023-02-01T08:37:51;16.77;;;6.03;;
9374;SDS011;4727;51.202;6.344;2023-02-01T08:40:23;16.67;;;5.30;;
9374;SDS011;4727;51.202;6.344;2023-02-01T08:43:00;12.90;;;5.37;;
9374;SDS011;4727;51.202;6.344;2023-02-01T08:45:27;19.10;;;5.60;;
9374;SDS011;4727;51.202;6.344;2023-02-01T08:48:19;17.87;;;5.70;;
9374;SDS011;4727;51.202;6.344;2023-02-01T08:50:54;12.37;;;6.43;;
9374;SDS011;4727;51.202;6.344;2023-02-01T08:53:30;14.87;;;5.23;;
9374;SDS011;4727;51.202;6.344;2023-02-01T08:56:10;18.43;;;5.77;;
9374;SDS011;4727;51.202;6.344;2023-02-01T08:58:39;19.07;;;5.73;;
9374;SDS011;4727;51.202;6.344;2023-02-01T09:01:16;15.63;;;5.43;;
9374;SDS011;4727;51.202;6.344;2023-02-01T09:03:51;21.00;;;5.53;;
9374;SDS011;4727;51.202;6.344;2023-02-01T09:06:23;14.83;;;5.17;;
9374;SDS011;4727;51.202;6.344;2023-02-01T09:08:49;19.20;;;5.43;;
9374;SDS011;4727;51.202;6.344;2023-02-01T09:11:16;20.47;;;5.97;;
9374;SDS011;4727;51.202;6.344;2023-02-01T09:13:42;19.43;;;7.13;;
9374;SDS011;4727;51.202;6.344;2023-02-01T09:16:08;11.27;;;5.10;;
9374;SDS011;4727;51.202;6.344;2023-02-01T09:18:34;21.00;;;5.83;;
9374;SDS011;4727;51.202;6.344;2023-02-01T09:21:03;15.80;;;5.57;;
9374;SDS011;4727;51.202;6.344;2023-02-01T09:23:30;21.93;;;5.73;;
9374;SDS011;4727;51.202;6.344;2023-02-01T09:25:59;19.43;;;5.87;;
9374;SDS011;4727;51.202;6.344;2023-02-01T09:28:45;13.40;;;6.10;;
9374;SDS011;4727;51.202;6.344;2023-02-01T09:31:11;18.47;;;5.10;;
9374;SDS011;4727;51.202;6.344;2023-02-01T09:33:37;14.90;;;6.00;;
9374;SDS011;4727;51.202;6.344;2023-02-01T09:36:04;15.60;;;5.50;;
9374;SDS011;4727;51.202;6.344;2023-02-01T09:38:30;19.63;;;5.20;;
9374;SDS011;4727;51.202;6.344;2023-02-01T09:40:57;14.63;;;5.50;;
9374;SDS011;4727;51.202;6.344;2023-02-01T09:48:32;19.03;;;6.07;;
9374;SDS011;4727;51.202;6.344;2023-02-01T09:50:59;13.70;;;4.50;;
9374;SDS011;4727;51.202;6.344;2023-02-01T09:53:35;14.50;;;5.30;;
9374;SDS011;4727;51.202;6.344;2023-02-01T09:56:05;14.83;;;5.83;;
9374;SDS011;4727;51.202;6.344;2023-02-01T09:58:35;14.63;;;5.37;;
9374;SDS011;4727;51.202;6.344;2023-02-01T10:01:03;17.23;;;6.07;;
9374;SDS011;4727;51.202;6.344;2023-02-01T10:03:34;16.40;;;5.50;;
9374;SDS011;4727;51.202;6.344;2023-02-01T10:08:51;17.23;;;5.60;;
9374;SDS011;4727;51.202;6.344;2023-02-01T10:11:32;13.00;;;4.90;;
9374;SDS011;4727;51.202;6.344;2023-02-01T10:22:09;15.30;;;5.90;;
9374;SDS011;4727;51.202;6.344;2023-02-01T10:29:35;14.90;;;5.43;;
9374;SDS011;4727;51.202;6.344;2023-02-01T10:32:01;13.87;;;4.70;;
9374;SDS011;4727;51.202;6.344;2023-02-01T10:34:30;18.67;;;5.30;;
9374;SDS011;4727;51.202;6.344;2023-02-01T10:37:00;16.77;;;5.00;;
9374;SDS011;4727;51.202;6.344;2023-02-01T10:39:26;13.87;;;4.80;;
9374;SDS011;4727;51.202;6.344;2023-02-01T10:41:52;15.70;;;5.40;;
9374;SDS011;4727;51.202;6.344;2023-02-01T10:44:21;12.20;;;5.20;;
9374;SDS011;4727;51.202;6.344;2023-02-01T10:46:48;14.53;;;5.23;;
9374;SDS011;4727;51.202;6.344;2023-02-01T10:49:18;18.73;;;5.20;;
9374;SDS011;4727;51.202;6.344;2023-02-01T10:51:51;23.40;;;6.13;;
9374;SDS011;4727;51.202;6.344;2023-02-01T10:54:19;10.07;;;4.97;;
9374;SDS011;4727;51.202;6.344;2023-02-01T11:00:20;15.80;;;5.37;;
9374;SDS011;4727;51.202;6.344;2023-02-01T11:02:46;15.73;;;5.27;;
9374;SDS011;4727;51.202;6.344;2023-02-01T11:05:15;16.17;;;5.53;;
9374;SDS011;4727;51.202;6.344;2023-02-01T11:07:50;13.10;;;4.90;;
9374;SDS011;4727;51.202;6.344;2023-02-01T11:13:04;11.77;;;5.00;;
9374;SDS011;4727;51.202;6.344;2023-02-01T11:15:30;10.30;;;4.77;;
9374;SDS011;4727;51.202;6.344;2023-02-01T11:17:56;13.93;;;4.47;;
9374;SDS011;4727;51.202;6.344;2023-02-01T11:20:39;16.27;;;4.77;;
9374;SDS011;4727;51.202;6.344;2023-02-01T11:23:21;17.23;;;5.37;;
9374;SDS011;4727;51.202;6.344;2023-02-01T11:25:55;10.80;;;5.00;;
9374;SDS011;4727;51.202;6.344;2023-02-01T11:28:34;14.53;;;5.83;;
9374;SDS011;4727;51.202;6.344;2023-02-01T11:31:04;16.87;;;5.33;;
9374;SDS011;4727;51.202;6.344;2023-02-01T11:33:31;13.70;;;5.23;;
9374;SDS011;4727;51.202;6.344;2023-02-01T11:36:00;11.60;;;5.20;;
9374;SDS011;4727;51.202;6.344;2023-02-01T11:38:33;14.33;;;5.77;;
9374;SDS011;4727;51.202;6.344;2023-02-01T11:41:20;14.40;;;5.57;;
9374;SDS011;4727;51.202;6.344;2023-02-01T11:46:30;14.97;;;5.67;;
9374;SDS011;4727;51.202;6.344;2023-02-01T11:48:57;19.50;;;5.60;;
9374;SDS011;4727;51.202;6.344;2023-02-01T11:59:48;12.70;;;5.70;;
9374;SDS011;4727;51.202;6.344;2023-02-01T12:07:55;17.27;;;6.13;;
9374;SDS011;4727;51.202;6.344;2023-02-01T12:23:35;17.70;;;5.63;;
9374;SDS011;4727;51.202;6.344;2023-02-01T12:34:00;12.10;;;4.77;;
9374;SDS011;4727;51.202;6.344;2023-02-01T12:39:22;18.63;;;5.27;;
9374;SDS011;4727;51.202;6.344;2023-02-01T12:46:54;16.20;;;4.83;;
9374;SDS011;4727;51.202;6.344;2023-02-01T12:49:30;13.87;;;5.17;;
9374;SDS011;4727;51.202;6.344;2023-02-01T12:51:59;12.43;;;4.47;;
9374;SDS011;4727;51.202;6.344;2023-02-01T12:56:53;13.03;;;4.37;;
9374;SDS011;4727;51.202;6.344;2023-02-01T13:01:53;13.67;;;5.53;;
9374;SDS011;4727;51.202;6.344;2023-02-01T13:04:32;11.63;;;4.83;;
9374;SDS011;4727;51.202;6.344;2023-02-01T13:09:37;11.83;;;4.83;;
9374;SDS011;4727;51.202;6.344;2023-02-01T13:12:07;11.20;;;4.57;;
9374;SDS011;4727;51.202;6.344;2023-02-01T13:14:44;9.43;;;3.97;;
9374;SDS011;4727;51.202;6.344;2023-02-01T13:17:15;8.77;;;3.80;;
9374;SDS011;4727;51.202;6.344;2023-02-01T13:22:10;14.73;;;4.20;;
9374;SDS011;4727;51.202;6.344;2023-02-01T13:24:48;11.13;;;4.20;;
9374;SDS011;4727;51.202;6.344;2023-02-01T13:27:15;16.07;;;4.40;;
9374;SDS011;4727;51.202;6.344;2023-02-01T13:29:45;10.07;;;3.90;;
9374;SDS011;4727;51.202;6.344;2023-02-01T13:45:16;14.60;;;3.87;;
9374;SDS011;4727;51.202;6.344;2023-02-01T13:47:46;10.90;;;3.63;;
9374;SDS011;4727;51.202;6.344;2023-02-01T13:52:43;9.80;;;4.17;;
9374;SDS011;4727;51.202;6.344;2023-02-01T13:55:15;17.73;;;4.33;;
9374;SDS011;4727;51.202;6.344;2023-02-01T13:57:42;12.17;;;4.83;;
9374;SDS011;4727;51.202;6.344;2023-02-01T14:03:02;10.87;;;3.60;;
9374;SDS011;4727;51.202;6.344;2023-02-01T14:13:23;11.93;;;3.53;;
9374;SDS011;4727;51.202;6.344;2023-02-01T14:23:41;13.10;;;3.57;;
9374;SDS011;4727;51.202;6.344;2023-02-01T14:26:09;9.77;;;3.63;;
9374;SDS011;4727;51.202;6.344;2023-02-01T14:28:39;10.17;;;4.03;;
9374;SDS011;4727;51.202;6.344;2023-02-01T14:31:25;13.97;;;4.27;;
9374;SDS011;4727;51.202;6.344;2023-02-01T14:36:24;12.77;;;4.17;;
9374;SDS011;4727;51.202;6.344;2023-02-01T14:38:50;17.00;;;7.57;;
9374;SDS011;4727;51.202;6.344;2023-02-01T14:43:49;16.33;;;4.60;;
9374;SDS011;4727;51.202;6.344;2023-02-01T14:46:15;13.07;;;4.00;;
9374;SDS011;4727;51.202;6.344;2023-02-01T14:48:42;11.03;;;3.93;;
9374;SDS011;4727;51.202;6.344;2023-02-01T14:51:11;16.33;;;4.27;;
9374;SDS011;4727;51.202;6.344;2023-02-01T14:53:39;8.10;;;3.63;;
9374;SDS011;4727;51.202;6.344;2023-02-01T14:56:08;12.93;;;4.60;;
9374;SDS011;4727;51.202;6.344;2023-02-01T15:01:25;12.20;;;4.10;;
9374;SDS011;4727;51.202;6.344;2023-02-01T15:04:11;13.20;;;4.50;;
9374;SDS011;4727;51.202;6.344;2023-02-01T15:06:40;18.13;;;4.43;;
9374;SDS011;4727;51.202;6.344;2023-02-01T15:09:08;10.83;;;4.20;;
9374;SDS011;4727;51.202;6.344;2023-02-01T15:14:32;14.27;;;4.33;;
9374;SDS011;4727;51.202;6.344;2023-02-01T15:16:59;16.97;;;4.20;;
9374;SDS011;4727;51.202;6.344;2023-02-01T15:19:25;15.53;;;4.13;;
9374;SDS011;4727;51.202;6.344;2023-02-01T15:21:53;10.57;;;4.20;;
9374;SDS011;4727;51.202;6.344;2023-02-01T15:24:23;9.87;;;3.73;;
9374;SDS011;4727;51.202;6.344;2023-02-01T15:26:50;10.23;;;3.87;;
9374;SDS011;4727;51.202;6.344;2023-02-01T15:29:16;11.50;;;3.93;;
9374;SDS011;4727;51.202;6.344;2023-02-01T15:31:44;12.17;;;4.10;;
9374;SDS011;4727;51.202;6.344;2023-02-01T15:34:11;12.77;;;4.10;;
9374;SDS011;4727;51.202;6.344;2023-02-01T15:36:37;13.90;;;4.87;;
9374;SDS011;4727;51.202;6.344;2023-02-01T15:41:54;11.67;;;4.30;;
9374;SDS011;4727;51.202;6.344;2023-02-01T15:46:50;9.80;;;3.83;;
9374;SDS011;4727;51.202;6.344;2023-02-01T15:51:44;15.17;;;4.27;;
9374;SDS011;4727;51.202;6.344;2023-02-01T15:54:17;17.47;;;6.27;;
9374;SDS011;4727;51.202;6.344;2023-02-01T15:56:46;13.17;;;4.40;;
9374;SDS011;4727;51.202;6.344;2023-02-01T15:59:17;12.07;;;4.67;;
9374;SDS011;4727;51.202;6.344;2023-02-01T16:01:44;15.13;;;4.03;;
9374;SDS011;4727;51.202;6.344;2023-02-01T16:04:21;14.73;;;5.03;;
9374;SDS011;4727;51.202;6.344;2023-02-01T16:06:53;13.23;;;4.97;;
9374;SDS011;4727;51.202;6.344;2023-02-01T16:09:20;13.17;;;4.07;;
9374;SDS011;4727;51.202;6.344;2023-02-01T16:11:58;17.13;;;5.03;;
9374;SDS011;4727;51.202;6.344;2023-02-01T16:14:24;15.33;;;4.77;;
9374;SDS011;4727;51.202;6.344;2023-02-01T16:16:51;12.77;;;4.70;;
9374;SDS011;4727;51.202;6.344;2023-02-01T16:19:17;14.83;;;4.27;;
9374;SDS011;4727;51.202;6.344;2023-02-01T16:21:43;19.80;;;4.60;;
9374;SDS011;4727;51.202;6.344;2023-02-01T16:24:10;14.17;;;4.63;;
9374;SDS011;4727;51.202;6.344;2023-02-01T16:26:36;14.43;;;4.73;;
9374;SDS011;4727;51.202;6.344;2023-02-01T16:29:03;11.30;;;4.53;;
9374;SDS011;4727;51.202;6.344;2023-02-01T16:31:33;14.10;;;4.93;;
9374;SDS011;4727;51.202;6.344;2023-02-01T16:33:59;14.43;;;4.60;;
9374;SDS011;4727;51.202;6.344;2023-02-01T16:36:25;14.37;;;4.67;;
9374;SDS011;4727;51.202;6.344;2023-02-01T16:38:53;10.13;;;4.00;;
9374;SDS011;4727;51.202;6.344;2023-02-01T16:41:20;16.53;;;4.73;;
9374;SDS011;4727;51.202;6.344;2023-02-01T16:43:49;9.90;;;4.40;;
9374;SDS011;4727;51.202;6.344;2023-02-01T16:46:15;14.40;;;4.23;;
9374;SDS011;4727;51.202;6.344;2023-02-01T16:48:45;13.53;;;4.77;;
9374;SDS011;4727;51.202;6.344;2023-02-01T16:51:13;16.37;;;4.47;;
9374;SDS011;4727;51.202;6.344;2023-02-01T16:53:39;15.43;;;4.67;;
9374;SDS011;4727;51.202;6.344;2023-02-01T16:56:18;14.10;;;4.40;;
9374;SDS011;4727;51.202;6.344;2023-02-01T16:58:45;11.87;;;4.37;;
9374;SDS011;4727;51.202;6.344;2023-02-01T17:01:12;13.93;;;4.77;;
9374;SDS011;4727;51.202;6.344;2023-02-01T17:03:38;13.47;;;4.30;;
9374;SDS011;4727;51.202;6.344;2023-02-01T17:06:04;15.63;;;5.00;;
9374;SDS011;4727;51.202;6.344;2023-02-01T17:08:32;13.50;;;4.80;;
9374;SDS011;4727;51.202;6.344;2023-02-01T17:10:58;14.13;;;4.50;;
9374;SDS011;4727;51.202;6.344;2023-02-01T17:13:24;12.87;;;4.50;;
9374;SDS011;4727;51.202;6.344;2023-02-01T17:15:52;18.57;;;4.90;;
9374;SDS011;4727;51.202;6.344;2023-02-01T17:18:19;14.63;;;5.57;;
9374;SDS011;4727;51.202;6.344;2023-02-01T17:20:45;12.37;;;4.97;;
9374;SDS011;4727;51.202;6.344;2023-02-01T17:23:12;13.37;;;4.93;;
9374;SDS011;4727;51.202;6.344;2023-02-01T17:25:38;11.30;;;3.80;;
9374;SDS011;4727;51.202;6.344;2023-02-01T17:28:05;11.40;;;4.60;;
9374;SDS011;4727;51.202;6.344;2023-02-01T17:30:31;15.30;;;4.70;;
9374;SDS011;4727;51.202;6.344;2023-02-01T17:32:58;11.83;;;5.20;;
9374;SDS011;4727;51.202;6.344;2023-02-01T17:35:24;12.07;;;4.07;;
9374;SDS011;4727;51.202;6.344;2023-02-01T17:37:51;11.77;;;4.23;;
9374;SDS011;4727;51.202;6.344;2023-02-01T17:40:17;14.23;;;4.87;;
9374;SDS011;4727;51.202;6.344;2023-02-01T17:42:43;10.47;;;4.03;;
9374;SDS011;4727;51.202;6.344;2023-02-01T17:47:54;16.03;;;5.13;;
9374;SDS011;4727;51.202;6.344;2023-02-01T17:50:20;13.70;;;3.97;;
9374;SDS011;4727;51.202;6.344;2023-02-01T17:52:46;11.93;;;4.63;;
9374;SDS011;4727;51.202;6.344;2023-02-01T17:55:19;13.63;;;4.50;;
9374;SDS011;4727;51.202;6.344;2023-02-01T17:57:47;11.83;;;4.27;;
9374;SDS011;4727;51.202;6.344;2023-02-01T18:00:13;15.03;;;4.90;;
9374;SDS011;4727;51.202;6.344;2023-02-01T18:02:40;13.90;;;4.37;;
9374;SDS011;4727;51.202;6.344;2023-02-01T18:05:25;10.80;;;4.60;;
9374;SDS011;4727;51.202;6.344;2023-02-01T18:07:51;13.33;;;4.67;;
9374;SDS011;4727;51.202;6.344;2023-02-01T18:10:17;12.17;;;5.20;;
9374;SDS011;4727;51.202;6.344;2023-02-01T18:12:43;15.23;;;5.17;;
9374;SDS011;4727;51.202;6.344;2023-02-01T18:15:20;14.37;;;4.80;;
9374;SDS011;4727;51.202;6.344;2023-02-01T18:17:47;13.23;;;4.90;;
9374;SDS011;4727;51.202;6.344;2023-02-01T18:20:17;16.47;;;5.23;;
9374;SDS011;4727;51.202;6.344;2023-02-01T18:22:44;10.90;;;4.73;;
9374;SDS011;4727;51.202;6.344;2023-02-01T18:25:22;16.33;;;4.77;;
9374;SDS011;4727;51.202;6.344;2023-02-01T18:27:56;12.77;;;4.50;;
9374;SDS011;4727;51.202;6.344;2023-02-01T18:30:23;11.60;;;4.43;;
9374;SDS011;4727;51.202;6.344;2023-02-01T18:32:49;16.33;;;5.00;;
9374;SDS011;4727;51.202;6.344;2023-02-01T18:37:41;11.63;;;4.20;;
9374;SDS011;4727;51.202;6.344;2023-02-01T18:40:17;13.60;;;5.13;;
9374;SDS011;4727;51.202;6.344;2023-02-01T18:42:44;14.43;;;4.83;;
9374;SDS011;4727;51.202;6.344;2023-02-01T18:45:22;12.30;;;5.20;;
9374;SDS011;4727;51.202;6.344;2023-02-01T18:47:48;14.27;;;4.70;;
9374;SDS011;4727;51.202;6.344;2023-02-01T18:50:15;15.33;;;5.07;;
9374;SDS011;4727;51.202;6.344;2023-02-01T18:52:41;12.33;;;4.80;;
9374;SDS011;4727;51.202;6.344;2023-02-01T18:55:07;16.37;;;5.50;;
9374;SDS011;4727;51.202;6.344;2023-02-01T18:57:33;16.43;;;4.57;;
9374;SDS011;4727;51.202;6.344;2023-02-01T18:59:59;15.90;;;5.13;;
9374;SDS011;4727;51.202;6.344;2023-02-01T19:02:25;15.70;;;4.90;;
9374;SDS011;4727;51.202;6.344;2023-02-01T19:04:51;19.37;;;5.33;;
9374;SDS011;4727;51.202;6.344;2023-02-01T19:07:17;17.87;;;5.53;;
9374;SDS011;4727;51.202;6.344;2023-02-01T19:09:43;14.87;;;5.13;;
9374;SDS011;4727;51.202;6.344;2023-02-01T19:12:09;14.20;;;5.00;;
9374;SDS011;4727;51.202;6.344;2023-02-01T19:14:35;15.33;;;4.87;;
9374;SDS011;4727;51.202;6.344;2023-02-01T19:17:01;12.40;;;5.10;;
9374;SDS011;4727;51.202;6.344;2023-02-01T19:19:27;13.33;;;4.83;;
9374;SDS011;4727;51.202;6.344;2023-02-01T19:21:53;18.43;;;5.73;;
9374;SDS011;4727;51.202;6.344;2023-02-01T19:24:19;14.10;;;5.40;;
9374;SDS011;4727;51.202;6.344;2023-02-01T19:26:45;15.57;;;5.87;;
9374;SDS011;4727;51.202;6.344;2023-02-01T19:29:13;17.47;;;5.40;;
9374;SDS011;4727;51.202;6.344;2023-02-01T19:31:39;16.87;;;5.90;;
9374;SDS011;4727;51.202;6.344;2023-02-01T19:34:07;15.43;;;5.40;;
9374;SDS011;4727;51.202;6.344;2023-02-01T19:36:33;16.43;;;5.63;;
9374;SDS011;4727;51.202;6.344;2023-02-01T19:39:02;14.37;;;5.70;;
9374;SDS011;4727;51.202;6.344;2023-02-01T19:41:28;13.40;;;5.13;;
9374;SDS011;4727;51.202;6.344;2023-02-01T21:53:51;16.00;;;6.30;;
9374;SDS011;4727;51.202;6.344;2023-02-01T21:56:17;19.07;;;6.30;;
9374;SDS011;4727;51.202;6.344;2023-02-01T21:58:43;14.30;;;6.43;;
9374;SDS011;4727;51.202;6.344;2023-02-01T22:01:09;22.60;;;6.10;;
9374;SDS011;4727;51.202;6.344;2023-02-01T22:03:35;21.57;;;6.13;;
9374;SDS011;4727;51.202;6.344;2023-02-01T22:06:01;14.97;;;5.87;;
9374;SDS011;4727;51.202;6.344;2023-02-01T22:08:26;19.97;;;6.80;;
9374;SDS011;4727;51.202;6.344;2023-02-01T22:10:52;18.40;;;6.00;;
9374;SDS011;4727;51.202;6.344;2023-02-01T22:13:18;14.93;;;5.40;;
9374;SDS011;4727;51.202;6.344;2023-02-01T22:15:44;18.43;;;5.83;;
9374;SDS011;4727;51.202;6.344;2023-02-01T22:18:11;25.90;;;6.80;;
9374;SDS011;4727;51.202;6.344;2023-02-01T22:20:36;20.90;;;6.23;;
9374;SDS011;4727;51.202;6.344;2023-02-01T22:23:02;16.53;;;5.43;;
9374;SDS011;4727;51.202;6.344;2023-02-01T22:25:29;17.23;;;5.87;;
9374;SDS011;4727;51.202;6.344;2023-02-01T22:27:55;16.33;;;5.70;;
9374;SDS011;4727;51.202;6.344;2023-02-01T22:30:21;19.63;;;5.23;;
9374;SDS011;4727;51.202;6.344;2023-02-01T22:32:47;16.90;;;6.63;;
9374;SDS011;4727;51.202;6.344;2023-02-01T22:35:13;17.67;;;6.43;;
9374;SDS011;4727;51.202;6.344;2023-02-01T22:37:39;16.00;;;5.80;;
9374;SDS011;4727;51.202;6.344;2023-02-01T22:40:06;19.87;;;6.43;;
9374;SDS011;4727;51.202;6.344;2023-02-01T22:42:32;16.27;;;7.03;;
9374;SDS011;4727;51.202;6.344;2023-02-01T22:44:58;18.63;;;6.13;;
9374;SDS011;4727;51.202;6.344;2023-02-01T22:47:25;12.67;;;5.57;;
9374;SDS011;4727;51.202;6.344;2023-02-01T22:49:51;17.97;;;5.87;;
9374;SDS011;4727;51.202;6.344;2023-02-01T22:52:17;16.00;;;6.03;;
9374;SDS011;4727;51.202;6.344;2023-02-01T22:54:43;24.57;;;6.47;;
9374;SDS011;4727;51.202;6.344;2023-02-01T22:57:09;20.07;;;6.40;;
9374;SDS011;4727;51.202;6.344;2023-02-01T22:59:35;12.87;;;6.13;;
9374;SDS011;4727;51.202;6.344;2023-02-01T23:02:01;19.70;;;6.33;;
9374;SDS011;4727;51.202;6.344;2023-02-01T23:04:27;18.87;;;6.27;;
9374;SDS011;4727;51.202;6.344;2023-02-01T23:06:53;20.93;;;6.83;;
9374;SDS011;4727;51.202;6.344;2023-02-01T23:09:20;20.00;;;6.83;;
9374;SDS011;4727;51.202;6.344;2023-02-01T23:11:47;20.80;;;6.97;;
9374;SDS011;4727;51.202;6.344;2023-02-01T23:14:14;19.20;;;7.03;;
9374;SDS011;4727;51.202;6.344;2023-02-01T23:16:40;19.33;;;6.40;;
9374;SDS011;4727;51.202;6.344;2023-02-01T23:19:08;17.77;;;6.03;;
9374;SDS011;4727;51.202;6.344;2023-02-01T23:21:34;21.13;;;7.30;;
9374;SDS011;4727;51.202;6.344;2023-02-01T23:24:00;21.73;;;7.07;;
9374;SDS011;4727;51.202;6.344;2023-02-01T23:26:27;23.67;;;6.77;;
9374;SDS011;4727;51.202;6.344;2023-02-01T23:28:54;18.33;;;6.57;;
9374;SDS011;4727;51.202;6.344;2023-02-01T23:31:25;24.67;;;7.00;;
9374;SDS011;4727;51.202;6.344;2023-02-01T23:33:51;17.73;;;6.27;;
9374;SDS011;4727;51.202;6.344;2023-02-01T23:36:19;23.40;;;7.67;;
9374;SDS011;4727;51.202;6.344;2023-02-01T23:38:45;21.50;;;6.60;;
9374;SDS011;4727;51.202;6.344;2023-02-01T23:41:12;19.27;;;6.20;;
9374;SDS011;4727;51.202;6.344;2023-02-01T23:43:39;18.67;;;6.07;;
9374;SDS011;4727;51.202;6.344;2023-02-01T23:48:49;24.10;;;6.50;;
9374;SDS011;4727;51.202;6.344;2023-02-01T23:51:16;12.20;;;6.27;;
9374;SDS011;4727;51.202;6.344;2023-02-01T23:53:42;17.17;;;6.30;;
9374;SDS011;4727;51.202;6.344;2023-02-01T23:56:14;15.70;;;6.03;;
9374;SDS011;4727;51.202;6.344;2023-02-01T23:58:40;21.57;;;6.50;;
